createdAt,value
2023-04-08T16:29:39.012Z,12.27
2023-04-08T16:32:06.053Z,12.49
2023-04-08T16:34:33.324Z,12.14
2023-04-08T16:37:00.577Z,12.26
2023-04-08T16:39:28.428Z,12.45
2023-04-08T16:41:55.478Z,12.58
2023-04-08T16:44:22.556Z,12.59
2023-04-08T16:46:49.656Z,12.60
2023-04-08T16:49:18.264Z,12.61
2023-04-08T16:51:45.569Z,12.42
2023-04-08T16:54:12.674Z,12.50
2023-04-08T16:56:44.506Z,12.31
2023-04-08T16:59:12.978Z,12.54
2023-04-08T17:01:40.066Z,12.89
2023-04-08T17:04:08.100Z,12.78
2023-04-08T17:06:36.506Z,12.97
2023-04-08T17:09:04.316Z,12.46
2023-04-08T17:11:31.514Z,12.87
2023-04-08T17:13:58.927Z,12.47
2023-04-08T17:16:26.020Z,12.73
2023-04-08T17:18:53.130Z,12.71
2023-04-08T17:21:20.458Z,12.73
2023-04-08T17:23:47.547Z,12.87
2023-04-08T17:26:14.943Z,12.76
2023-04-08T17:28:42.043Z,12.68
2023-04-08T17:31:09.912Z,12.70
2023-04-08T17:33:37.317Z,12.85
2023-04-08T17:36:04.927Z,12.36
2023-04-08T17:38:32.466Z,12.34
2023-04-08T17:40:59.561Z,12.56
2023-04-08T17:43:26.667Z,12.29
2023-04-08T17:45:53.910Z,12.63
2023-04-08T17:48:20.953Z,12.32
2023-04-08T17:50:48.018Z,12.60
2023-04-08T17:53:15.188Z,12.33
2023-04-08T17:55:42.238Z,12.70
2023-04-08T17:58:09.467Z,12.49
2023-04-08T18:00:36.505Z,12.48
2023-04-08T18:03:03.593Z,12.52
2023-04-08T18:05:31.760Z,12.23
2023-04-08T18:07:59.573Z,12.77
2023-04-08T18:10:26.713Z,12.75
2023-04-08T18:13:03.687Z,12.83
2023-04-08T18:15:36.447Z,12.70
2023-04-08T18:18:03.915Z,12.69
2023-04-08T18:20:31.048Z,12.61
2023-04-08T18:23:00.437Z,12.75
2023-04-08T18:25:27.769Z,12.66
2023-04-08T18:27:54.751Z,12.43
2023-04-08T18:30:21.801Z,12.62
2023-04-08T18:32:48.918Z,12.29
2023-04-08T18:35:16.004Z,12.43
2023-04-08T18:37:43.079Z,12.48
2023-04-08T18:40:10.669Z,12.42
2023-04-08T18:42:37.712Z,12.96
2023-04-08T18:45:05.254Z,12.98
2023-04-08T18:47:32.472Z,12.46
2023-04-08T18:49:59.602Z,12.40
2023-04-08T18:52:26.610Z,12.78
2023-04-08T18:54:53.747Z,12.78
2023-04-08T18:57:20.893Z,12.78
2023-04-08T18:59:49.405Z,12.84
2023-04-08T19:02:16.913Z,12.93
2023-04-08T19:04:44.119Z,12.90
2023-04-08T19:07:12.167Z,13.02
2023-04-08T19:09:39.286Z,12.69
2023-04-08T19:12:06.522Z,12.87
2023-04-08T19:14:33.538Z,12.65
2023-04-08T19:17:01.363Z,12.70
2023-04-08T19:19:28.726Z,12.84
2023-04-08T19:21:56.630Z,12.67
2023-04-08T19:24:23.801Z,13.07
2023-04-08T19:26:53.223Z,12.64
2023-04-08T19:29:23.208Z,12.76
2023-04-08T19:31:50.530Z,12.79
2023-04-08T19:34:17.543Z,13.12
2023-04-08T19:36:44.654Z,13.21
2023-04-08T19:39:11.704Z,12.94
2023-04-08T19:41:38.756Z,12.92
2023-04-08T19:44:06.153Z,13.08
2023-04-08T19:46:33.351Z,12.87
2023-04-08T19:49:00.896Z,13.22
2023-04-08T19:51:29.488Z,13.16
2023-04-08T19:53:57.104Z,13.16
2023-04-08T19:56:24.187Z,13.09
2023-04-08T19:58:52.141Z,13.19
2023-04-08T20:01:19.413Z,13.15
2023-04-08T20:03:50.671Z,13.19
2023-04-08T20:06:19.160Z,13.01
2023-04-08T20:08:46.759Z,13.24
2023-04-08T20:11:14.055Z,13.25
2023-04-08T20:13:41.346Z,13.09
2023-04-08T20:16:08.542Z,13.25
2023-04-08T20:18:35.597Z,13.26
2023-04-08T20:21:02.607Z,13.38
2023-04-08T20:23:29.735Z,13.12
2023-04-08T20:25:56.931Z,13.22
2023-04-08T20:28:24.175Z,13.49
2023-04-08T20:30:52.209Z,13.36
2023-04-08T20:33:19.483Z,13.16
2023-04-08T20:35:47.773Z,13.43
2023-04-08T20:38:14.939Z,13.33
2023-04-08T20:40:45.422Z,13.19
2023-04-08T20:43:12.722Z,13.46
2023-04-08T20:45:42.191Z,13.50
2023-04-08T20:48:16.852Z,13.43
2023-04-08T20:50:44.026Z,13.67
2023-04-08T20:53:17.267Z,13.71
2023-04-08T20:55:44.374Z,13.12
2023-04-08T20:58:12.007Z,13.43
2023-04-08T21:00:39.333Z,13.59
2023-04-08T21:03:06.768Z,13.38
2023-04-08T21:05:41.267Z,13.40
2023-04-08T21:08:08.421Z,13.52
2023-04-08T21:10:35.609Z,13.71
2023-04-08T21:13:02.666Z,13.49
2023-04-08T21:15:30.085Z,13.72
2023-04-08T21:17:57.203Z,13.55
2023-04-08T21:20:24.417Z,13.62
2023-04-08T21:22:51.680Z,13.73
2023-04-08T21:25:18.762Z,13.95
2023-04-08T21:27:45.936Z,13.88
2023-04-08T21:35:57.287Z,13.82
2023-04-08T21:38:24.638Z,13.62
2023-04-08T21:40:52.270Z,13.80
2023-04-08T21:43:31.891Z,13.81
2023-04-08T21:45:58.946Z,14.06
2023-04-08T21:48:26.058Z,14.07
2023-04-08T21:50:53.612Z,13.78
2023-04-08T21:53:22.442Z,13.73
2023-04-08T21:55:49.561Z,13.85
2023-04-08T21:58:17.499Z,14.03
2023-04-08T22:00:45.038Z,13.76
2023-04-08T22:03:12.362Z,13.75
2023-04-08T22:05:39.671Z,13.83
2023-04-08T22:08:06.698Z,13.97
2023-04-08T22:10:33.832Z,13.94
2023-04-08T22:13:00.880Z,13.94
2023-04-08T22:15:28.249Z,14.06
2023-04-08T22:17:55.302Z,14.14
2023-04-08T22:20:22.414Z,13.91
2023-04-08T22:22:49.558Z,13.97
2023-04-08T22:25:16.699Z,14.13
2023-04-08T22:27:43.773Z,13.91
2023-04-08T22:30:11.544Z,14.02
2023-04-08T22:32:38.606Z,14.09
2023-04-08T22:35:15.006Z,13.80
2023-04-08T22:37:42.258Z,14.19
2023-04-08T22:40:09.962Z,14.13
2023-04-08T22:42:37.238Z,14.09
2023-04-08T22:45:05.310Z,13.90
2023-04-08T22:47:32.287Z,13.98
2023-04-08T22:49:59.490Z,14.26
2023-04-08T22:52:26.588Z,13.97
2023-04-08T22:54:53.610Z,13.88
2023-04-08T22:57:20.674Z,14.13
2023-04-08T22:59:47.699Z,14.21
2023-04-08T23:02:14.800Z,14.18
2023-04-08T23:04:54.164Z,14.20
2023-04-08T23:07:21.227Z,14.23
2023-04-08T23:09:48.280Z,14.19
2023-04-08T23:12:15.306Z,14.19
2023-04-08T23:14:42.339Z,14.13
2023-04-08T23:17:12.213Z,13.93
2023-04-08T23:19:39.262Z,14.33
2023-04-08T23:22:06.539Z,14.26
2023-04-08T23:24:34.558Z,14.23
2023-04-08T23:27:02.750Z,14.22
2023-04-08T23:29:30.354Z,14.12
2023-04-08T23:31:58.122Z,14.26
2023-04-08T23:34:48.411Z,14.23
2023-04-08T23:37:15.682Z,14.50
2023-04-08T23:39:42.805Z,14.13
2023-04-08T23:42:09.930Z,14.19
2023-04-08T23:47:03.634Z,14.21
2023-04-08T23:49:30.778Z,14.46
2023-04-08T23:51:57.814Z,14.34
2023-04-08T23:54:25.044Z,14.35
2023-04-08T23:56:52.276Z,14.29
2023-04-08T23:59:19.471Z,14.22
